sensor_id;sensor_type;location;lat;lon;timestamp;P1;durP1;ratioP1;P2;durP2;ratioP2
10717;SDS011;13513;42.700;23.124;2022-09-28T00:00:43;5.33;;;3.40;;
10717;SDS011;13513;42.700;23.124;2022-09-28T00:03:12;4.43;;;3.00;;
10717;SDS011;13513;42.700;23.124;2022-09-28T00:05:43;5.33;;;3.43;;
10717;SDS011;13513;42.700;23.124;2022-09-28T00:08:13;5.50;;;3.40;;
10717;SDS011;13513;42.700;23.124;2022-09-28T00:10:53;3.60;;;3.30;;
10717;SDS011;13513;42.700;23.124;2022-09-28T00:13:18;6.03;;;3.22;;
10717;SDS011;13513;42.700;23.124;2022-09-28T00:15:58;3.80;;;2.70;;
10717;SDS011;13513;42.700;23.124;2022-09-28T00:18:37;7.47;;;2.57;;
10717;SDS011;13513;42.700;23.124;2022-09-28T00:21:13;3.83;;;2.77;;
10717;SDS011;13513;42.700;23.124;2022-09-28T00:23:46;6.23;;;3.10;;
10717;SDS011;13513;42.700;23.124;2022-09-28T00:26:33;5.15;;;2.60;;
10717;SDS011;13513;42.700;23.124;2022-09-28T00:29:05;3.50;;;2.80;;
10717;SDS011;13513;42.700;23.124;2022-09-28T00:31:37;4.22;;;3.10;;
10717;SDS011;13513;42.700;23.124;2022-09-28T00:34:08;3.47;;;2.30;;
10717;SDS011;13513;42.700;23.124;2022-09-28T00:36:41;4.73;;;2.47;;
10717;SDS011;13513;42.700;23.124;2022-09-28T00:39:12;5.67;;;2.33;;
10717;SDS011;13513;42.700;23.124;2022-09-28T00:41:43;4.70;;;2.07;;
10717;SDS011;13513;42.700;23.124;2022-09-28T00:47:06;5.30;;;2.00;;
10717;SDS011;13513;42.700;23.124;2022-09-28T00:49:55;2.87;;;1.90;;
10717;SDS011;13513;42.700;23.124;2022-09-28T00:52:27;6.63;;;2.37;;
10717;SDS011;13513;42.700;23.124;2022-09-28T00:55:01;4.27;;;1.87;;
10717;SDS011;13513;42.700;23.124;2022-09-28T00:57:32;5.55;;;1.85;;
10717;SDS011;13513;42.700;23.124;2022-09-28T01:00:04;3.67;;;1.97;;
10717;SDS011;13513;42.700;23.124;2022-09-28T01:02:35;3.12;;;1.67;;
10717;SDS011;13513;42.700;23.124;2022-09-28T01:05:06;3.13;;;1.70;;
10717;SDS011;13513;42.700;23.124;2022-09-28T01:07:39;3.23;;;1.90;;
10717;SDS011;13513;42.700;23.124;2022-09-28T01:10:10;2.65;;;1.72;;
10717;SDS011;13513;42.700;23.124;2022-09-28T01:12:41;4.53;;;2.02;;
10717;SDS011;13513;42.700;23.124;2022-09-28T01:15:12;2.15;;;1.50;;
10717;SDS011;13513;42.700;23.124;2022-09-28T01:17:47;3.58;;;1.70;;
10717;SDS011;13513;42.700;23.124;2022-09-28T01:25:44;2.33;;;1.90;;
10717;SDS011;13513;42.700;23.124;2022-09-28T01:28:25;2.90;;;1.85;;
10717;SDS011;13513;42.700;23.124;2022-09-28T01:33:39;2.27;;;1.60;;
10717;SDS011;13513;42.700;23.124;2022-09-28T01:36:24;2.35;;;1.55;;
10717;SDS011;13513;42.700;23.124;2022-09-28T01:38:52;3.42;;;1.70;;
10717;SDS011;13513;42.700;23.124;2022-09-28T01:41:28;4.65;;;1.95;;
10717;SDS011;13513;42.700;23.124;2022-09-28T01:44:00;2.15;;;1.80;;
10717;SDS011;13513;42.700;23.124;2022-09-28T01:46:36;7.00;;;1.83;;
10717;SDS011;13513;42.700;23.124;2022-09-28T01:49:26;8.48;;;2.58;;
10717;SDS011;13513;42.700;23.124;2022-09-28T01:51:58;4.62;;;2.20;;
10717;SDS011;13513;42.700;23.124;2022-09-28T01:55:37;5.33;;;1.85;;
10717;SDS011;13513;42.700;23.124;2022-09-28T01:57:29;4.97;;;2.25;;
10717;SDS011;13513;42.700;23.124;2022-09-28T02:00:06;2.45;;;2.12;;
10717;SDS011;13513;42.700;23.124;2022-09-28T02:02:44;4.35;;;2.10;;
10717;SDS011;13513;42.700;23.124;2022-09-28T02:05:14;6.87;;;2.37;;
10717;SDS011;13513;42.700;23.124;2022-09-28T02:08:33;2.65;;;2.05;;
10717;SDS011;13513;42.700;23.124;2022-09-28T02:10:23;5.12;;;2.00;;
10717;SDS011;13513;42.700;23.124;2022-09-28T02:12:58;11.70;;;2.80;;
10717;SDS011;13513;42.700;23.124;2022-09-28T02:15:44;10.70;;;2.60;;
10717;SDS011;13513;42.700;23.124;2022-09-28T02:18:25;12.43;;;2.40;;
10717;SDS011;13513;42.700;23.124;2022-09-28T02:21:06;10.53;;;2.23;;
10717;SDS011;13513;42.700;23.124;2022-09-28T02:23:34;7.87;;;2.72;;
10717;SDS011;13513;42.700;23.124;2022-09-28T02:26:08;9.53;;;2.65;;
10717;SDS011;13513;42.700;23.124;2022-09-28T02:28:38;8.20;;;2.30;;
10717;SDS011;13513;42.700;23.124;2022-09-28T02:31:09;9.73;;;2.65;;
10717;SDS011;13513;42.700;23.124;2022-09-28T02:33:41;5.15;;;2.42;;
10717;SDS011;13513;42.700;23.124;2022-09-28T02:36:12;9.45;;;2.62;;
10717;SDS011;13513;42.700;23.124;2022-09-28T02:38:43;8.85;;;2.45;;
10717;SDS011;13513;42.700;23.124;2022-09-28T02:44:09;9.58;;;2.10;;
10717;SDS011;13513;42.700;23.124;2022-09-28T02:46:49;6.25;;;2.00;;
10717;SDS011;13513;42.700;23.124;2022-09-28T03:01:05;4.50;;;2.08;;
10717;SDS011;13513;42.700;23.124;2022-09-28T03:03:44;6.85;;;2.08;;
10717;SDS011;13513;42.700;23.124;2022-09-28T03:06:21;4.47;;;2.17;;
10717;SDS011;13513;42.700;23.124;2022-09-28T03:11:41;8.93;;;2.10;;
10717;SDS011;13513;42.700;23.124;2022-09-28T03:14:16;7.72;;;2.20;;
10717;SDS011;13513;42.700;23.124;2022-09-28T03:16:48;7.28;;;2.72;;
10717;SDS011;13513;42.700;23.124;2022-09-28T03:19:20;10.30;;;2.70;;
10717;SDS011;13513;42.700;23.124;2022-09-28T03:21:51;13.20;;;2.52;;
10717;SDS011;13513;42.700;23.124;2022-09-28T03:24:22;5.12;;;2.58;;
10717;SDS011;13513;42.700;23.124;2022-09-28T03:26:52;7.35;;;2.35;;
10717;SDS011;13513;42.700;23.124;2022-09-28T03:29:23;5.83;;;2.60;;
10717;SDS011;13513;42.700;23.124;2022-09-28T03:31:54;12.55;;;2.33;;
10717;SDS011;13513;42.700;23.124;2022-09-28T03:34:24;6.58;;;2.42;;
10717;SDS011;13513;42.700;23.124;2022-09-28T03:36:55;5.75;;;2.42;;
10717;SDS011;13513;42.700;23.124;2022-09-28T03:39:26;5.28;;;2.70;;
10717;SDS011;13513;42.700;23.124;2022-09-28T03:41:58;9.08;;;2.65;;
10717;SDS011;13513;42.700;23.124;2022-09-28T03:44:32;5.15;;;2.40;;
10717;SDS011;13513;42.700;23.124;2022-09-28T03:47:03;9.30;;;2.65;;
10717;SDS011;13513;42.700;23.124;2022-09-28T03:49:34;5.37;;;2.75;;
10717;SDS011;13513;42.700;23.124;2022-09-28T03:52:03;7.35;;;3.30;;
10717;SDS011;13513;42.700;23.124;2022-09-28T03:54:38;6.85;;;3.02;;
10717;SDS011;13513;42.700;23.124;2022-09-28T03:57:08;3.90;;;2.47;;
10717;SDS011;13513;42.700;23.124;2022-09-28T03:59:39;3.25;;;2.75;;
10717;SDS011;13513;42.700;23.124;2022-09-28T04:02:09;4.33;;;3.10;;
10717;SDS011;13513;42.700;23.124;2022-09-28T04:04:40;7.03;;;2.83;;
10717;SDS011;13513;42.700;23.124;2022-09-28T04:07:11;7.87;;;3.10;;
10717;SDS011;13513;42.700;23.124;2022-09-28T04:09:41;8.98;;;3.70;;
10717;SDS011;13513;42.700;23.124;2022-09-28T04:12:12;8.60;;;3.22;;
10717;SDS011;13513;42.700;23.124;2022-09-28T04:14:43;9.28;;;3.30;;
10717;SDS011;13513;42.700;23.124;2022-09-28T04:17:14;4.37;;;2.90;;
10717;SDS011;13513;42.700;23.124;2022-09-28T04:19:45;4.42;;;3.02;;
10717;SDS011;13513;42.700;23.124;2022-09-28T04:22:15;5.45;;;2.80;;
10717;SDS011;13513;42.700;23.124;2022-09-28T04:24:46;5.97;;;3.95;;
10717;SDS011;13513;42.700;23.124;2022-09-28T04:27:17;6.92;;;3.55;;
10717;SDS011;13513;42.700;23.124;2022-09-28T04:30:05;9.00;;;3.72;;
10717;SDS011;13513;42.700;23.124;2022-09-28T04:32:37;12.18;;;3.58;;
10717;SDS011;13513;42.700;23.124;2022-09-28T04:35:08;5.53;;;3.15;;
10717;SDS011;13513;42.700;23.124;2022-09-28T04:37:40;6.90;;;3.25;;
10717;SDS011;13513;42.700;23.124;2022-09-28T04:40:11;8.33;;;2.95;;
10717;SDS011;13513;42.700;23.124;2022-09-28T04:42:41;9.15;;;2.67;;
10717;SDS011;13513;42.700;23.124;2022-09-28T04:45:12;5.47;;;3.30;;
10717;SDS011;13513;42.700;23.124;2022-09-28T04:47:43;9.83;;;3.17;;
10717;SDS011;13513;42.700;23.124;2022-09-28T04:50:13;7.35;;;2.80;;
10717;SDS011;13513;42.700;23.124;2022-09-28T04:52:44;7.80;;;2.70;;
10717;SDS011;13513;42.700;23.124;2022-09-28T04:55:17;5.95;;;2.70;;
10717;SDS011;13513;42.700;23.124;2022-09-28T04:57:49;7.30;;;2.70;;
10717;SDS011;13513;42.700;23.124;2022-09-28T05:00:19;4.70;;;3.00;;
10717;SDS011;13513;42.700;23.124;2022-09-28T05:02:50;7.00;;;2.87;;
10717;SDS011;13513;42.700;23.124;2022-09-28T05:05:28;5.25;;;2.80;;
10717;SDS011;13513;42.700;23.124;2022-09-28T05:07:58;7.08;;;2.87;;
10717;SDS011;13513;42.700;23.124;2022-09-28T05:10:29;7.58;;;2.83;;
10717;SDS011;13513;42.700;23.124;2022-09-28T05:13:01;8.28;;;3.37;;
10717;SDS011;13513;42.700;23.124;2022-09-28T05:15:32;8.08;;;3.08;;
10717;SDS011;13513;42.700;23.124;2022-09-28T05:18:07;9.15;;;2.87;;
10717;SDS011;13513;42.700;23.124;2022-09-28T05:20:40;14.78;;;3.35;;
10717;SDS011;13513;42.700;23.124;2022-09-28T05:23:11;9.03;;;3.15;;
10717;SDS011;13513;42.700;23.124;2022-09-28T05:25:43;9.23;;;3.02;;
10717;SDS011;13513;42.700;23.124;2022-09-28T05:28:13;7.62;;;2.58;;
10717;SDS011;13513;42.700;23.124;2022-09-28T05:30:44;6.75;;;3.27;;
10717;SDS011;13513;42.700;23.124;2022-09-28T05:33:15;7.83;;;3.02;;
10717;SDS011;13513;42.700;23.124;2022-09-28T05:35:46;6.35;;;2.70;;
10717;SDS011;13513;42.700;23.124;2022-09-28T05:38:18;6.30;;;2.90;;
10717;SDS011;13513;42.700;23.124;2022-09-28T05:40:48;7.65;;;2.62;;
10717;SDS011;13513;42.700;23.124;2022-09-28T05:43:19;10.40;;;2.35;;
10717;SDS011;13513;42.700;23.124;2022-09-28T05:45:51;7.15;;;2.05;;
10717;SDS011;13513;42.700;23.124;2022-09-28T05:48:22;5.90;;;2.02;;
10717;SDS011;13513;42.700;23.124;2022-09-28T05:50:53;8.88;;;2.08;;
10717;SDS011;13513;42.700;23.124;2022-09-28T05:53:24;7.90;;;2.17;;
10717;SDS011;13513;42.700;23.124;2022-09-28T05:55:58;7.15;;;2.00;;
10717;SDS011;13513;42.700;23.124;2022-09-28T05:58:29;4.42;;;1.98;;
10717;SDS011;13513;42.700;23.124;2022-09-28T06:00:58;8.20;;;2.60;;
10717;SDS011;13513;42.700;23.124;2022-09-28T06:03:30;7.28;;;2.98;;
10717;SDS011;13513;42.700;23.124;2022-09-28T06:06:01;11.18;;;3.20;;
10717;SDS011;13513;42.700;23.124;2022-09-28T06:08:32;9.20;;;2.15;;
10717;SDS011;13513;42.700;23.124;2022-09-28T06:11:02;7.78;;;2.20;;
10717;SDS011;13513;42.700;23.124;2022-09-28T06:13:33;8.80;;;2.25;;
10717;SDS011;13513;42.700;23.124;2022-09-28T06:16:07;7.05;;;1.95;;
10717;SDS011;13513;42.700;23.124;2022-09-28T06:18:38;3.62;;;1.77;;
10717;SDS011;13513;42.700;23.124;2022-09-28T06:21:11;7.58;;;2.45;;
10717;SDS011;13513;42.700;23.124;2022-09-28T06:23:43;4.58;;;1.90;;
10717;SDS011;13513;42.700;23.124;2022-09-28T06:26:15;7.03;;;2.00;;
10717;SDS011;13513;42.700;23.124;2022-09-28T06:28:46;6.47;;;2.22;;
10717;SDS011;13513;42.700;23.124;2022-09-28T06:31:17;8.93;;;1.85;;
10717;SDS011;13513;42.700;23.124;2022-09-28T06:33:48;4.03;;;1.80;;
10717;SDS011;13513;42.700;23.124;2022-09-28T06:36:18;6.00;;;1.85;;
10717;SDS011;13513;42.700;23.124;2022-09-28T06:38:48;4.30;;;1.82;;
10717;SDS011;13513;42.700;23.124;2022-09-28T06:41:20;6.20;;;1.82;;
10717;SDS011;13513;42.700;23.124;2022-09-28T06:43:51;4.00;;;1.67;;
10717;SDS011;13513;42.700;23.124;2022-09-28T06:46:22;4.87;;;2.00;;
10717;SDS011;13513;42.700;23.124;2022-09-28T06:48:53;7.97;;;1.85;;
10717;SDS011;13513;42.700;23.124;2022-09-28T06:51:24;6.22;;;1.75;;
10717;SDS011;13513;42.700;23.124;2022-09-28T06:53:55;7.20;;;2.02;;
10717;SDS011;13513;42.700;23.124;2022-09-28T06:56:25;13.83;;;2.22;;
10717;SDS011;13513;42.700;23.124;2022-09-28T06:58:55;6.53;;;1.80;;
10717;SDS011;13513;42.700;23.124;2022-09-28T07:01:26;8.90;;;1.95;;
10717;SDS011;13513;42.700;23.124;2022-09-28T07:03:57;14.58;;;2.30;;
10717;SDS011;13513;42.700;23.124;2022-09-28T07:06:28;15.43;;;2.72;;
10717;SDS011;13513;42.700;23.124;2022-09-28T07:08:59;10.65;;;2.62;;
10717;SDS011;13513;42.700;23.124;2022-09-28T07:11:30;7.97;;;2.40;;
10717;SDS011;13513;42.700;23.124;2022-09-28T07:14:01;8.13;;;2.52;;
10717;SDS011;13513;42.700;23.124;2022-09-28T07:16:32;7.85;;;3.20;;
10717;SDS011;13513;42.700;23.124;2022-09-28T07:19:03;12.05;;;2.75;;
10717;SDS011;13513;42.700;23.124;2022-09-28T07:21:34;13.50;;;2.92;;
10717;SDS011;13513;42.700;23.124;2022-09-28T07:24:05;6.40;;;2.62;;
10717;SDS011;13513;42.700;23.124;2022-09-28T07:26:35;7.45;;;2.37;;
10717;SDS011;13513;42.700;23.124;2022-09-28T07:29:06;7.60;;;2.20;;
10717;SDS011;13513;42.700;23.124;2022-09-28T07:31:36;10.18;;;2.30;;
10717;SDS011;13513;42.700;23.124;2022-09-28T07:34:07;9.08;;;2.00;;
10717;SDS011;13513;42.700;23.124;2022-09-28T07:36:37;10.82;;;2.10;;
10717;SDS011;13513;42.700;23.124;2022-09-28T07:39:08;6.22;;;1.87;;
10717;SDS011;13513;42.700;23.124;2022-09-28T07:41:39;5.92;;;1.47;;
10717;SDS011;13513;42.700;23.124;2022-09-28T07:44:10;4.25;;;1.50;;
10717;SDS011;13513;42.700;23.124;2022-09-28T07:46:41;6.58;;;1.85;;
10717;SDS011;13513;42.700;23.124;2022-09-28T07:49:11;7.45;;;1.77;;
10717;SDS011;13513;42.700;23.124;2022-09-28T07:51:42;7.72;;;2.20;;
10717;SDS011;13513;42.700;23.124;2022-09-28T07:54:13;7.00;;;2.20;;
10717;SDS011;13513;42.700;23.124;2022-09-28T07:56:44;6.65;;;1.72;;
10717;SDS011;13513;42.700;23.124;2022-09-28T07:59:15;9.73;;;2.08;;
10717;SDS011;13513;42.700;23.124;2022-09-28T08:01:46;8.48;;;2.27;;
10717;SDS011;13513;42.700;23.124;2022-09-28T08:04:18;6.75;;;1.80;;
10717;SDS011;13513;42.700;23.124;2022-09-28T08:06:49;11.55;;;2.27;;
10717;SDS011;13513;42.700;23.124;2022-09-28T08:09:19;7.72;;;2.12;;
10717;SDS011;13513;42.700;23.124;2022-09-28T08:11:50;10.13;;;2.27;;
10717;SDS011;13513;42.700;23.124;2022-09-28T08:14:21;6.72;;;2.00;;
10717;SDS011;13513;42.700;23.124;2022-09-28T08:16:52;6.95;;;1.80;;
10717;SDS011;13513;42.700;23.124;2022-09-28T08:19:23;7.40;;;1.67;;
10717;SDS011;13513;42.700;23.124;2022-09-28T08:21:54;4.55;;;1.47;;
10717;SDS011;13513;42.700;23.124;2022-09-28T08:24:25;6.37;;;1.77;;
10717;SDS011;13513;42.700;23.124;2022-09-28T08:26:56;5.33;;;1.70;;
10717;SDS011;13513;42.700;23.124;2022-09-28T08:29:27;3.12;;;1.37;;
10717;SDS011;13513;42.700;23.124;2022-09-28T08:31:58;10.80;;;2.08;;
10717;SDS011;13513;42.700;23.124;2022-09-28T08:34:29;8.43;;;2.17;;
10717;SDS011;13513;42.700;23.124;2022-09-28T08:37:00;8.03;;;1.60;;
10717;SDS011;13513;42.700;23.124;2022-09-28T08:39:31;4.65;;;1.87;;
10717;SDS011;13513;42.700;23.124;2022-09-28T08:42:14;3.45;;;1.37;;
10717;SDS011;13513;42.700;23.124;2022-09-28T08:44:45;6.08;;;1.70;;
10717;SDS011;13513;42.700;23.124;2022-09-28T08:50:05;2.37;;;1.30;;
10717;SDS011;13513;42.700;23.124;2022-09-28T08:52:37;3.55;;;1.12;;
10717;SDS011;13513;42.700;23.124;2022-09-28T08:55:10;4.90;;;1.20;;
10717;SDS011;13513;42.700;23.124;2022-09-28T08:57:44;5.50;;;1.30;;
10717;SDS011;13513;42.700;23.124;2022-09-28T09:00:41;4.92;;;1.50;;
10717;SDS011;13513;42.700;23.124;2022-09-28T09:03:15;4.10;;;1.50;;
10717;SDS011;13513;42.700;23.124;2022-09-28T09:08:54;5.15;;;1.30;;
10717;SDS011;13513;42.700;23.124;2022-09-28T09:14:15;4.75;;;1.50;;
10717;SDS011;13513;42.700;23.124;2022-09-28T09:16:49;3.17;;;1.40;;
10717;SDS011;13513;42.700;23.124;2022-09-28T09:22:40;3.40;;;1.37;;
10717;SDS011;13513;42.700;23.124;2022-09-28T09:25:20;4.37;;;1.17;;
10717;SDS011;13513;42.700;23.124;2022-09-28T09:31:16;5.60;;;1.85;;
10717;SDS011;13513;42.700;23.124;2022-09-28T09:33:54;3.52;;;1.02;;
10717;SDS011;13513;42.700;23.124;2022-09-28T09:39:02;2.50;;;1.17;;
10717;SDS011;13513;42.700;23.124;2022-09-28T09:41:40;2.05;;;1.10;;
10717;SDS011;13513;42.700;23.124;2022-09-28T09:44:30;2.12;;;0.85;;
10717;SDS011;13513;42.700;23.124;2022-09-28T09:47:25;1.32;;;0.88;;
10717;SDS011;13513;42.700;23.124;2022-09-28T09:50:04;2.45;;;1.00;;
10717;SDS011;13513;42.700;23.124;2022-09-28T09:55:19;2.05;;;0.90;;
10717;SDS011;13513;42.700;23.124;2022-09-28T09:57:50;6.83;;;1.10;;
10717;SDS011;13513;42.700;23.124;2022-09-28T10:00:26;1.98;;;0.90;;
10717;SDS011;13513;42.700;23.124;2022-09-28T10:02:56;4.40;;;1.20;;
10717;SDS011;13513;42.700;23.124;2022-09-28T10:05:28;2.62;;;0.82;;
10717;SDS011;13513;42.700;23.124;2022-09-28T10:08:03;2.70;;;0.90;;
10717;SDS011;13513;42.700;23.124;2022-09-28T10:10:43;2.35;;;1.07;;
10717;SDS011;13513;42.700;23.124;2022-09-28T10:13:19;1.40;;;1.00;;
10717;SDS011;13513;42.700;23.124;2022-09-28T10:15:50;4.45;;;1.20;;
10717;SDS011;13513;42.700;23.124;2022-09-28T10:18:21;5.80;;;1.00;;
10717;SDS011;13513;42.700;23.124;2022-09-28T10:20:53;2.72;;;1.07;;
10717;SDS011;13513;42.700;23.124;2022-09-28T10:23:26;3.62;;;1.15;;
10717;SDS011;13513;42.700;23.124;2022-09-28T10:26:02;3.75;;;1.20;;
10717;SDS011;13513;42.700;23.124;2022-09-28T10:28:44;1.82;;;0.82;;
10717;SDS011;13513;42.700;23.124;2022-09-28T10:34:13;3.65;;;1.05;;
10717;SDS011;13513;42.700;23.124;2022-09-28T10:36:44;3.90;;;1.00;;
10717;SDS011;13513;42.700;23.124;2022-09-28T10:39:30;1.85;;;0.90;;
10717;SDS011;13513;42.700;23.124;2022-09-28T10:42:05;3.08;;;1.32;;
10717;SDS011;13513;42.700;23.124;2022-09-28T10:44:53;5.58;;;1.20;;
10717;SDS011;13513;42.700;23.124;2022-09-28T10:47:30;2.62;;;1.00;;
10717;SDS011;13513;42.700;23.124;2022-09-28T10:50:02;2.95;;;1.07;;
10717;SDS011;13513;42.700;23.124;2022-09-28T10:52:35;5.92;;;1.10;;
10717;SDS011;13513;42.700;23.124;2022-09-28T10:57:59;1.95;;;0.90;;
10717;SDS011;13513;42.700;23.124;2022-09-28T11:00:32;3.77;;;0.88;;
10717;SDS011;13513;42.700;23.124;2022-09-28T11:03:24;1.35;;;0.70;;
10717;SDS011;13513;42.700;23.124;2022-09-28T11:06:01;1.92;;;0.90;;
10717;SDS011;13513;42.700;23.124;2022-09-28T11:08:34;2.12;;;1.00;;
10717;SDS011;13513;42.700;23.124;2022-09-28T11:11:13;2.17;;;1.15;;
10717;SDS011;13513;42.700;23.124;2022-09-28T11:13:48;1.77;;;0.70;;
10717;SDS011;13513;42.700;23.124;2022-09-28T11:16:26;1.57;;;0.90;;
10717;SDS011;13513;42.700;23.124;2022-09-28T11:18:57;5.85;;;1.07;;
10717;SDS011;13513;42.700;23.124;2022-09-28T11:21:30;1.32;;;0.70;;
10717;SDS011;13513;42.700;23.124;2022-09-28T11:24:04;1.90;;;0.60;;
10717;SDS011;13513;42.700;23.124;2022-09-28T11:42:10;2.85;;;1.00;;
10717;SDS011;13513;42.700;23.124;2022-09-28T11:57:04;2.52;;;0.98;;
10717;SDS011;13513;42.700;23.124;2022-09-28T11:59:41;1.40;;;0.88;;
10717;SDS011;13513;42.700;23.124;2022-09-28T12:02:15;1.90;;;0.90;;
10717;SDS011;13513;42.700;23.124;2022-09-28T12:04:54;1.40;;;0.82;;
10717;SDS011;13513;42.700;23.124;2022-09-28T12:07:36;2.47;;;1.12;;
10717;SDS011;13513;42.700;23.124;2022-09-28T12:10:34;3.05;;;0.90;;
10717;SDS011;13513;42.700;23.124;2022-09-28T12:13:15;1.98;;;0.90;;
10717;SDS011;13513;42.700;23.124;2022-09-28T12:15:46;2.40;;;1.02;;
10717;SDS011;13513;42.700;23.124;2022-09-28T12:24:15;0.93;;;0.68;;
10717;SDS011;13513;42.700;23.124;2022-09-28T12:26:47;2.12;;;0.93;;
10717;SDS011;13513;42.700;23.124;2022-09-28T12:29:37;2.83;;;1.00;;
10717;SDS011;13513;42.700;23.124;2022-09-28T12:32:37;3.70;;;0.88;;
10717;SDS011;13513;42.700;23.124;2022-09-28T12:34:58;3.70;;;0.70;;
10717;SDS011;13513;42.700;23.124;2022-09-28T12:48:10;2.25;;;0.82;;
10717;SDS011;13513;42.700;23.124;2022-09-28T12:50:51;1.70;;;0.82;;
10717;SDS011;13513;42.700;23.124;2022-09-28T12:56:04;3.00;;;1.12;;
10717;SDS011;13513;42.700;23.124;2022-09-28T12:58:45;4.80;;;0.90;;
10717;SDS011;13513;42.700;23.124;2022-09-28T13:09:42;4.37;;;1.00;;
10717;SDS011;13513;42.700;23.124;2022-09-28T13:17:45;1.02;;;0.70;;
10717;SDS011;13513;42.700;23.124;2022-09-28T13:25:46;6.25;;;1.02;;
10717;SDS011;13513;42.700;23.124;2022-09-28T13:28:18;1.52;;;0.90;;
10717;SDS011;13513;42.700;23.124;2022-09-28T13:30:54;4.58;;;1.20;;
10717;SDS011;13513;42.700;23.124;2022-09-28T13:33:34;5.20;;;0.95;;
10717;SDS011;13513;42.700;23.124;2022-09-28T13:36:50;1.52;;;0.80;;
10717;SDS011;13513;42.700;23.124;2022-09-28T13:38:56;2.22;;;0.90;;
10717;SDS011;13513;42.700;23.124;2022-09-28T13:41:30;3.40;;;0.90;;
10717;SDS011;13513;42.700;23.124;2022-09-28T13:46:48;3.02;;;0.80;;
10717;SDS011;13513;42.700;23.124;2022-09-28T13:57:55;3.87;;;1.00;;
10717;SDS011;13513;42.700;23.124;2022-09-28T14:00:34;2.77;;;0.98;;
10717;SDS011;13513;42.700;23.124;2022-09-28T14:06:05;3.10;;;0.85;;
10717;SDS011;13513;42.700;23.124;2022-09-28T14:14:26;1.40;;;0.78;;
10717;SDS011;13513;42.700;23.124;2022-09-28T14:20:07;3.08;;;0.82;;
10717;SDS011;13513;42.700;23.124;2022-09-28T14:25:31;3.27;;;1.00;;
10717;SDS011;13513;42.700;23.124;2022-09-28T14:31:12;0.80;;;0.70;;
10717;SDS011;13513;42.700;23.124;2022-09-28T14:33:37;1.80;;;0.90;;
10717;SDS011;13513;42.700;23.124;2022-09-28T14:36:25;1.72;;;0.88;;
10717;SDS011;13513;42.700;23.124;2022-09-28T14:39:24;2.77;;;1.55;;
10717;SDS011;13513;42.700;23.124;2022-09-28T14:42:13;2.85;;;1.00;;
10717;SDS011;13513;42.700;23.124;2022-09-28T14:47:39;3.40;;;0.80;;
10717;SDS011;13513;42.700;23.124;2022-09-28T14:50:24;2.77;;;1.00;;
10717;SDS011;13513;42.700;23.124;2022-09-28T14:52:54;4.12;;;1.12;;
10717;SDS011;13513;42.700;23.124;2022-09-28T14:55:41;1.65;;;0.90;;
10717;SDS011;13513;42.700;23.124;2022-09-28T14:58:17;1.05;;;0.80;;
10717;SDS011;13513;42.700;23.124;2022-09-28T15:00:53;2.15;;;0.90;;
10717;SDS011;13513;42.700;23.124;2022-09-28T15:03:34;2.15;;;0.85;;
10717;SDS011;13513;42.700;23.124;2022-09-28T15:06:12;2.42;;;0.60;;
10717;SDS011;13513;42.700;23.124;2022-09-28T15:08:39;3.00;;;1.00;;
10717;SDS011;13513;42.700;23.124;2022-09-28T15:11:14;0.95;;;0.62;;
10717;SDS011;13513;42.700;23.124;2022-09-28T15:13:45;3.45;;;0.93;;
10717;SDS011;13513;42.700;23.124;2022-09-28T15:16:21;6.08;;;1.55;;
10717;SDS011;13513;42.700;23.124;2022-09-28T15:19:03;0.90;;;0.90;;
10717;SDS011;13513;42.700;23.124;2022-09-28T15:21:36;1.12;;;0.80;;
10717;SDS011;13513;42.700;23.124;2022-09-28T15:24:28;2.77;;;1.10;;
10717;SDS011;13513;42.700;23.124;2022-09-28T15:27:02;1.55;;;0.98;;
10717;SDS011;13513;42.700;23.124;2022-09-28T15:29:33;5.03;;;0.80;;
10717;SDS011;13513;42.700;23.124;2022-09-28T15:32:04;1.95;;;0.72;;
10717;SDS011;13513;42.700;23.124;2022-09-28T15:34:36;2.65;;;1.02;;
10717;SDS011;13513;42.700;23.124;2022-09-28T15:37:23;3.00;;;1.37;;
10717;SDS011;13513;42.700;23.124;2022-09-28T15:39:54;5.47;;;1.42;;
10717;SDS011;13513;42.700;23.124;2022-09-28T15:42:26;1.82;;;1.00;;
10717;SDS011;13513;42.700;23.124;2022-09-28T15:45:00;3.25;;;0.90;;
10717;SDS011;13513;42.700;23.124;2022-09-28T15:47:31;5.83;;;1.27;;
10717;SDS011;13513;42.700;23.124;2022-09-28T15:50:03;1.27;;;0.80;;
10717;SDS011;13513;42.700;23.124;2022-09-28T15:55:17;2.95;;;0.85;;
10717;SDS011;13513;42.700;23.124;2022-09-28T15:57:48;3.75;;;0.80;;
10717;SDS011;13513;42.700;23.124;2022-09-28T16:00:22;1.07;;;0.82;;
10717;SDS011;13513;42.700;23.124;2022-09-28T16:03:00;4.22;;;0.93;;
10717;SDS011;13513;42.700;23.124;2022-09-28T16:05:47;2.52;;;1.35;;
10717;SDS011;13513;42.700;23.124;2022-09-28T16:08:21;2.47;;;1.00;;
10717;SDS011;13513;42.700;23.124;2022-09-28T16:10:54;6.50;;;1.20;;
10717;SDS011;13513;42.700;23.124;2022-09-28T16:13:24;2.37;;;1.20;;
10717;SDS011;13513;42.700;23.124;2022-09-28T16:15:56;4.58;;;1.20;;
10717;SDS011;13513;42.700;23.124;2022-09-28T16:18:28;1.67;;;0.78;;
10717;SDS011;13513;42.700;23.124;2022-09-28T16:21:18;3.92;;;2.08;;
10717;SDS011;13513;42.700;23.124;2022-09-28T16:23:52;2.65;;;1.30;;
10717;SDS011;13513;42.700;23.124;2022-09-28T16:26:27;3.17;;;1.35;;
10717;SDS011;13513;42.700;23.124;2022-09-28T16:28:58;8.05;;;1.70;;
10717;SDS011;13513;42.700;23.124;2022-09-28T16:31:30;5.15;;;2.25;;
10717;SDS011;13513;42.700;23.124;2022-09-28T16:34:08;7.35;;;2.75;;
10717;SDS011;13513;42.700;23.124;2022-09-28T16:36:41;8.65;;;2.58;;
10717;SDS011;13513;42.700;23.124;2022-09-28T16:39:14;5.80;;;2.70;;
10717;SDS011;13513;42.700;23.124;2022-09-28T16:41:54;8.45;;;5.28;;
10717;SDS011;13513;42.700;23.124;2022-09-28T16:44:25;5.90;;;3.87;;
10717;SDS011;13513;42.700;23.124;2022-09-28T16:46:57;5.87;;;2.02;;
10717;SDS011;13513;42.700;23.124;2022-09-28T16:49:27;11.88;;;7.10;;
10717;SDS011;13513;42.700;23.124;2022-09-28T16:51:59;15.58;;;8.80;;
10717;SDS011;13513;42.700;23.124;2022-09-28T16:54:30;3.45;;;1.60;;
10717;SDS011;13513;42.700;23.124;2022-09-28T16:57:17;11.30;;;3.10;;
10717;SDS011;13513;42.700;23.124;2022-09-28T16:59:48;3.72;;;1.10;;
10717;SDS011;13513;42.700;23.124;2022-09-28T17:02:20;3.83;;;1.50;;
10717;SDS011;13513;42.700;23.124;2022-09-28T17:04:51;5.37;;;2.10;;
10717;SDS011;13513;42.700;23.124;2022-09-28T17:07:22;4.47;;;1.12;;
10717;SDS011;13513;42.700;23.124;2022-09-28T17:09:53;4.17;;;1.20;;
10717;SDS011;13513;42.700;23.124;2022-09-28T17:12:24;5.03;;;2.45;;
10717;SDS011;13513;42.700;23.124;2022-09-28T17:14:55;5.37;;;1.57;;
10717;SDS011;13513;42.700;23.124;2022-09-28T17:17:26;3.83;;;1.52;;
10717;SDS011;13513;42.700;23.124;2022-09-28T17:19:57;4.42;;;1.47;;
10717;SDS011;13513;42.700;23.124;2022-09-28T17:22:27;3.12;;;1.37;;
10717;SDS011;13513;42.700;23.124;2022-09-28T17:24:59;1.98;;;1.17;;
10717;SDS011;13513;42.700;23.124;2022-09-28T17:27:29;2.58;;;1.42;;
10717;SDS011;13513;42.700;23.124;2022-09-28T17:30:00;4.28;;;1.40;;
10717;SDS011;13513;42.700;23.124;2022-09-28T17:32:35;6.83;;;1.90;;
10717;SDS011;13513;42.700;23.124;2022-09-28T17:35:06;5.00;;;1.70;;
10717;SDS011;13513;42.700;23.124;2022-09-28T17:37:36;5.08;;;2.00;;
10717;SDS011;13513;42.700;23.124;2022-09-28T17:40:19;5.75;;;1.85;;
10717;SDS011;13513;42.700;23.124;2022-09-28T17:42:50;3.25;;;1.90;;
10717;SDS011;13513;42.700;23.124;2022-09-28T17:45:22;4.83;;;1.90;;
10717;SDS011;13513;42.700;23.124;2022-09-28T17:47:54;6.55;;;2.52;;